createdAt,value
2018-05-24T00:02:27.011Z,77.40
2018-05-24T00:04:54.561Z,77.40
2018-05-24T00:07:22.842Z,77.60
2018-05-24T00:09:51.120Z,77.50
2018-05-24T00:12:18.667Z,77.30
2018-05-24T00:14:46.194Z,77.80
2018-05-24T00:17:13.720Z,77.80
2018-05-24T00:19:42.045Z,78.30
2018-05-24T00:22:09.566Z,78.20
2018-05-24T00:24:37.857Z,78.50
2018-05-24T00:27:05.405Z,78.50
2018-05-24T00:29:32.945Z,78.20
2018-05-24T00:32:01.246Z,78.90
2018-05-24T00:34:28.828Z,78.10
2018-05-24T00:36:56.350Z,78.30
2018-05-24T00:39:24.639Z,78.60
2018-05-24T00:41:53.694Z,77.90
2018-05-24T00:44:21.220Z,77.90
2018-05-24T00:46:49.505Z,78.40
2018-05-24T00:49:17.850Z,78.40
2018-05-24T00:51:45.372Z,78.20
2018-05-24T00:54:12.887Z,78.50
2018-05-24T00:56:40.425Z,78.10
2018-05-24T00:59:07.954Z,77.60
2018-05-24T01:01:35.484Z,77.60
2018-05-24T01:04:04.091Z,76.80
2018-05-24T01:06:32.367Z,76.80
2018-05-24T01:09:00.650Z,76.90
2018-05-24T01:11:28.970Z,77.00
2018-05-24T01:13:56.493Z,76.90
2018-05-24T01:16:24.039Z,77.10
2018-05-24T01:18:53.089Z,76.80
2018-05-24T01:21:20.601Z,76.70
2018-05-24T01:23:48.119Z,76.60
2018-05-24T01:26:15.681Z,76.30
2018-05-24T01:28:43.192Z,76.30
2018-05-24T01:31:10.714Z,75.70
2018-05-24T01:33:38.253Z,75.70
2018-05-24T01:36:06.575Z,75.80
2018-05-24T01:38:34.100Z,75.70
2018-05-24T01:41:02.406Z,75.10
2018-05-24T01:43:29.922Z,75.10
2018-05-24T01:45:57.445Z,75.20
2018-05-24T01:48:24.992Z,74.90
2018-05-24T01:50:52.627Z,74.60
2018-05-24T01:53:20.943Z,74.60
2018-05-24T01:55:48.489Z,74.50
2018-05-24T01:58:16.774Z,74.90
2018-05-24T02:00:45.052Z,75.20
2018-05-24T02:03:13.358Z,74.70
2018-05-24T02:05:40.887Z,74.70
2018-05-24T02:08:09.175Z,74.80
2018-05-24T02:10:37.489Z,75.70
2018-05-24T02:13:05.001Z,75.60
2018-05-24T02:15:32.519Z,75.80
2018-05-24T02:18:00.079Z,76.50
2018-05-24T02:20:27.602Z,75.40
2018-05-24T02:22:55.878Z,76.20
2018-05-24T02:25:23.424Z,75.80
2018-05-24T02:27:50.949Z,75.60
2018-05-24T02:30:18.506Z,75.00
2018-05-24T02:32:46.066Z,75.70
2018-05-24T02:35:14.345Z,75.60
2018-05-24T02:37:41.882Z,75.50
2018-05-24T02:40:10.214Z,75.20
2018-05-24T02:42:37.739Z,75.10
2018-05-24T02:45:06.020Z,75.60
2018-05-24T02:47:34.330Z,74.80
2018-05-24T02:50:01.857Z,74.80
2018-05-24T02:52:30.331Z,75.60
2018-05-24T02:54:57.882Z,74.90
2018-05-24T02:57:25.401Z,74.90
2018-05-24T02:59:52.936Z,74.80
2018-05-24T03:02:21.255Z,74.50
2018-05-24T03:04:48.788Z,74.40
2018-05-24T03:07:17.071Z,74.30
2018-05-24T03:09:45.477Z,74.20
2018-05-24T03:12:12.998Z,74.10
2018-05-24T03:14:40.514Z,74.70
2018-05-24T03:17:08.072Z,74.90
2018-05-24T03:19:35.582Z,74.90
2018-05-24T03:22:03.101Z,74.80
2018-05-24T03:24:30.647Z,74.70
2018-05-24T03:26:58.936Z,75.00
2018-05-24T03:29:26.453Z,75.00
2018-05-24T03:31:53.990Z,75.20
2018-05-24T03:34:21.499Z,75.20
2018-05-24T03:36:49.099Z,75.40
2018-05-24T03:39:16.640Z,75.90
2018-05-24T03:41:44.928Z,76.50
2018-05-24T03:44:13.214Z,75.80
2018-05-24T03:46:41.522Z,76.10
2018-05-24T03:49:09.114Z,76.10
2018-05-24T03:51:36.639Z,75.60
2018-05-24T03:54:04.314Z,75.40
2018-05-24T03:56:31.825Z,75.10
2018-05-24T03:59:01.186Z,74.70
2018-05-24T04:01:40.548Z,75.50
2018-05-24T04:04:19.781Z,75.10
2018-05-24T04:06:47.314Z,75.70
2018-05-24T04:09:15.590Z,75.40
2018-05-24T04:11:43.150Z,75.40
2018-05-24T04:14:10.701Z,75.80
2018-05-24T04:16:38.977Z,75.80
2018-05-24T04:19:07.254Z,76.10
2018-05-24T04:21:35.570Z,76.10
2018-05-24T04:24:03.091Z,76.00
2018-05-24T04:26:31.389Z,76.40
2018-05-24T04:28:59.717Z,76.40
2018-05-24T04:31:27.237Z,76.30
2018-05-24T04:33:55.517Z,75.60
2018-05-24T04:36:23.823Z,75.50
2018-05-24T04:38:51.351Z,75.50
2018-05-24T04:41:19.630Z,76.10
2018-05-24T04:43:47.941Z,76.20
2018-05-24T04:46:15.498Z,75.50
2018-05-24T04:48:43.021Z,75.30
2018-05-24T04:51:10.619Z,75.80
2018-05-24T04:53:38.908Z,74.60
2018-05-24T04:56:06.500Z,74.50
2018-05-24T04:58:34.042Z,74.30
2018-05-24T05:01:01.567Z,75.40
2018-05-24T05:03:29.094Z,75.90
2018-05-24T05:05:56.639Z,76.00
2018-05-24T05:08:24.158Z,75.70
2018-05-24T05:10:51.684Z,75.20
2018-05-24T05:13:19.223Z,74.60
2018-05-24T05:15:46.747Z,74.90
2018-05-24T05:18:14.367Z,74.90
2018-05-24T05:20:41.908Z,75.20
2018-05-24T05:23:10.241Z,74.50
2018-05-24T05:25:38.543Z,75.50
2018-05-24T05:28:06.149Z,74.80
2018-05-24T05:30:33.664Z,75.20
2018-05-24T05:33:01.220Z,75.60
2018-05-24T05:35:28.816Z,76.10
2018-05-24T05:37:56.334Z,75.00
2018-05-24T05:40:23.862Z,75.90
2018-05-24T05:42:52.174Z,75.00
2018-05-24T05:45:20.450Z,74.20
2018-05-24T05:47:47.971Z,74.20
2018-05-24T05:50:16.294Z,73.60
2018-05-24T05:52:43.817Z,73.60
2018-05-24T05:55:12.102Z,72.80
2018-05-24T05:57:40.504Z,71.90
2018-05-24T06:00:08.037Z,71.80
2018-05-24T06:02:35.574Z,72.10
2018-05-24T06:05:03.120Z,71.80
2018-05-24T06:07:30.642Z,71.10
2018-05-24T06:09:58.931Z,72.20
2018-05-24T06:12:27.247Z,72.20
2018-05-24T06:14:54.794Z,72.20
2018-05-24T06:17:22.343Z,71.50
2018-05-24T06:19:50.649Z,71.80
2018-05-24T06:22:18.165Z,71.70
2018-05-24T06:24:45.693Z,71.50
2018-05-24T06:27:13.252Z,70.10
2018-05-24T06:29:40.782Z,70.40
2018-05-24T06:32:08.346Z,71.10
2018-05-24T06:34:36.764Z,71.50
2018-05-24T06:37:04.279Z,71.40
2018-05-24T06:39:31.814Z,70.70
2018-05-24T06:41:59.373Z,70.00
2018-05-24T06:44:26.883Z,70.30
2018-05-24T06:46:55.158Z,70.00
2018-05-24T06:49:22.705Z,70.00
2018-05-24T06:51:50.241Z,70.80
2018-05-24T06:54:17.765Z,70.30
2018-05-24T06:56:46.109Z,70.20
2018-05-24T06:59:13.799Z,70.10
2018-05-24T07:01:41.429Z,70.50
2018-05-24T07:04:09.027Z,70.00
2018-05-24T07:06:36.554Z,70.20
2018-05-24T07:09:04.085Z,70.60
2018-05-24T07:11:31.617Z,69.70
2018-05-24T07:13:59.127Z,69.80
2018-05-24T07:16:26.637Z,69.30
2018-05-24T07:18:54.197Z,69.80
2018-05-24T07:21:21.723Z,70.50
2018-05-24T07:23:49.233Z,69.60
2018-05-24T07:26:16.797Z,69.20
2018-05-24T07:28:44.314Z,69.20
2018-05-24T07:31:11.862Z,68.90
2018-05-24T07:33:39.413Z,69.10
2018-05-24T07:36:07.696Z,69.00
2018-05-24T07:38:35.991Z,68.70
2018-05-24T07:41:03.542Z,68.60
2018-05-24T07:43:31.826Z,69.30
2018-05-24T07:46:00.098Z,68.50
2018-05-24T07:48:28.408Z,68.90
2018-05-24T07:50:55.959Z,68.20
2018-05-24T07:53:23.496Z,68.20
2018-05-24T07:55:51.059Z,68.00
2018-05-24T07:58:18.625Z,67.30
2018-05-24T08:00:47.010Z,67.60
2018-05-24T08:03:15.324Z,66.90
2018-05-24T08:05:42.843Z,67.30
2018-05-24T08:08:10.362Z,67.80
2018-05-24T08:10:37.920Z,67.90
2018-05-24T08:13:05.433Z,68.40
2018-05-24T08:15:33.049Z,67.60
2018-05-24T08:18:00.616Z,66.70
2018-05-24T08:20:28.911Z,67.20
2018-05-24T08:22:56.443Z,67.20
2018-05-24T08:25:24.758Z,67.60
2018-05-24T08:27:52.278Z,67.50
2018-05-24T08:30:20.585Z,67.00
2018-05-24T08:32:48.135Z,66.90
2018-05-24T08:35:15.749Z,67.00
2018-05-24T08:37:43.214Z,67.50
2018-05-24T08:40:10.772Z,66.40
2018-05-24T08:42:38.294Z,67.70
2018-05-24T08:45:06.570Z,66.00
2018-05-24T08:47:34.885Z,66.00
2018-05-24T08:50:02.398Z,66.00
2018-05-24T08:52:29.938Z,68.30
2018-05-24T08:54:57.563Z,67.90
2018-05-24T08:57:25.101Z,66.20
2018-05-24T08:59:53.390Z,69.50
2018-05-24T09:02:21.796Z,69.20
2018-05-24T09:04:49.325Z,69.20
2018-05-24T09:07:16.931Z,70.10
2018-05-24T09:09:44.482Z,70.00
2018-05-24T09:12:12.009Z,70.00
2018-05-24T09:14:39.530Z,69.50
2018-05-24T09:17:07.089Z,69.40
2018-05-24T09:19:35.410Z,72.20
2018-05-24T09:22:02.943Z,72.10
2018-05-24T09:24:30.500Z,71.10
2018-05-24T09:26:58.023Z,72.90
2018-05-24T09:29:26.422Z,72.60
2018-05-24T09:31:53.911Z,72.30
2018-05-24T09:34:21.437Z,73.80
2018-05-24T09:36:49.731Z,73.80
2018-05-24T09:39:18.062Z,74.40
2018-05-24T09:41:45.592Z,74.40
2018-05-24T09:44:13.124Z,77.10
2018-05-24T09:46:40.682Z,76.40
2018-05-24T09:49:09.719Z,73.60
2018-05-24T09:51:37.254Z,73.50
2018-05-24T09:54:04.797Z,71.50
2018-05-24T09:56:32.326Z,70.50
2018-05-24T09:58:59.877Z,70.40
2018-05-24T10:01:28.206Z,73.40
2018-05-24T10:03:55.810Z,73.40
2018-05-24T10:06:24.289Z,70.00
2018-05-24T10:08:52.607Z,71.20
2018-05-24T10:11:20.133Z,71.20
2018-05-24T10:13:48.454Z,71.20
2018-05-24T10:16:16.082Z,71.10
2018-05-24T10:18:43.559Z,71.50
2018-05-24T10:21:11.901Z,71.50
2018-05-24T10:23:39.454Z,71.40
2018-05-24T10:26:06.994Z,71.40
2018-05-24T10:28:34.514Z,70.60
2018-05-24T10:31:02.070Z,70.30
2018-05-24T10:33:29.629Z,68.50
2018-05-24T10:35:57.201Z,66.40
2018-05-24T10:38:24.773Z,67.40
2018-05-24T10:40:53.070Z,68.20
2018-05-24T10:43:21.378Z,68.80
2018-05-24T10:45:48.939Z,68.80
2018-05-24T10:48:16.466Z,67.70
2018-05-24T10:50:43.992Z,68.30
2018-05-24T10:53:11.549Z,67.60
2018-05-24T10:55:39.070Z,68.30
2018-05-24T10:58:07.368Z,68.00
2018-05-24T11:00:34.916Z,67.80
2018-05-24T11:03:03.241Z,69.30
2018-05-24T11:05:30.802Z,69.30
2018-05-24T11:07:58.349Z,68.90
2018-05-24T11:10:25.875Z,69.50
2018-05-24T11:12:53.392Z,69.00
2018-05-24T11:15:20.951Z,68.30
2018-05-24T11:17:48.517Z,66.90
2018-05-24T11:20:16.537Z,69.50
2018-05-24T11:22:44.083Z,67.30
2018-05-24T11:25:11.682Z,67.30
2018-05-24T11:27:39.175Z,67.30
2018-05-24T11:30:06.735Z,66.20
2018-05-24T11:32:34.266Z,64.30
2018-05-24T11:35:01.782Z,64.20
2018-05-24T11:37:29.350Z,66.40
2018-05-24T11:39:56.883Z,65.40
2018-05-24T11:42:25.175Z,64.90
2018-05-24T11:44:52.729Z,64.80
2018-05-24T11:47:20.312Z,63.30
2018-05-24T11:49:47.846Z,62.40
2018-05-24T11:52:16.262Z,65.20
2018-05-24T11:54:43.786Z,65.20
2018-05-24T11:57:11.313Z,65.10
2018-05-24T11:59:38.856Z,63.50
2018-05-24T12:02:06.378Z,63.20
2018-05-24T12:04:34.683Z,64.50
2018-05-24T12:07:02.534Z,64.50
2018-05-24T12:09:29.994Z,62.40
2018-05-24T12:11:58.306Z,64.80
2018-05-24T12:14:25.867Z,64.70
2018-05-24T12:16:53.416Z,66.10
2018-05-24T12:19:21.702Z,65.70
2018-05-24T12:21:50.017Z,65.90
2018-05-24T12:24:17.542Z,65.80
2018-05-24T12:26:45.838Z,63.40
2018-05-24T12:29:14.213Z,59.10
2018-05-24T12:31:42.696Z,51.90
2018-05-24T12:34:11.015Z,49.80
2018-05-24T12:36:38.607Z,49.70
2018-05-24T12:39:06.894Z,49.70
2018-05-24T12:41:34.466Z,49.70
2018-05-24T12:44:02.007Z,51.90
2018-05-24T12:46:29.531Z,54.90
2018-05-24T12:48:57.096Z,54.00
2018-05-24T12:51:24.649Z,55.70
2018-05-24T12:53:52.927Z,55.40
2018-05-24T12:56:21.231Z,54.50
2018-05-24T12:58:48.783Z,54.40
2018-05-24T13:01:17.063Z,57.40
2018-05-24T13:03:45.364Z,57.90
2018-05-24T13:06:12.903Z,57.90
2018-05-24T13:08:41.409Z,57.40
2018-05-24T13:11:09.723Z,57.80
2018-05-24T13:13:37.259Z,57.80
2018-05-24T13:16:04.775Z,58.30
2018-05-24T13:18:32.306Z,56.60
2018-05-24T13:20:59.873Z,56.70
2018-05-24T13:23:28.167Z,56.80
2018-05-24T13:25:56.475Z,55.60
2018-05-24T13:28:24.042Z,55.60
2018-05-24T13:30:52.318Z,56.20
2018-05-24T13:33:19.847Z,56.10
2018-05-24T13:35:47.503Z,54.00
2018-05-24T13:38:15.021Z,55.40
2018-05-24T13:40:42.542Z,54.70
2018-05-24T13:43:10.075Z,55.10
2018-05-24T13:45:39.111Z,53.20
2018-05-24T13:48:09.465Z,53.10
2018-05-24T13:50:36.994Z,53.50
2018-05-24T13:53:04.502Z,54.10
2018-05-24T13:55:32.016Z,54.00
2018-05-24T13:57:59.659Z,54.30
2018-05-24T14:00:30.192Z,54.40
2018-05-24T14:02:57.713Z,55.30
2018-05-24T14:05:25.285Z,55.80
2018-05-24T14:07:52.801Z,55.30
2018-05-24T14:10:20.453Z,54.90
2018-05-24T14:12:48.022Z,56.10
2018-05-24T14:15:15.535Z,53.10
2018-05-24T14:17:43.037Z,54.40
2018-05-24T14:20:11.338Z,54.40
2018-05-24T14:22:38.845Z,54.40
2018-05-24T14:25:06.384Z,55.40
2018-05-24T14:27:33.917Z,54.90
2018-05-24T14:30:01.455Z,54.70
2018-05-24T14:32:29.011Z,54.00
2018-05-24T14:34:56.554Z,54.00
2018-05-24T14:37:24.089Z,52.60
2018-05-24T14:39:51.605Z,53.70
2018-05-24T14:42:19.219Z,54.80
2018-05-24T14:44:46.794Z,55.40
2018-05-24T14:47:14.333Z,54.40
2018-05-24T14:49:41.878Z,55.40
2018-05-24T14:52:10.162Z,56.50
2018-05-24T14:54:39.325Z,56.00
2018-05-24T14:57:06.874Z,56.00
2018-05-24T14:59:34.398Z,56.50
2018-05-24T15:02:02.724Z,56.00
2018-05-24T15:04:30.269Z,56.00
2018-05-24T15:06:57.795Z,57.00
2018-05-24T15:09:25.312Z,57.00
2018-05-24T15:11:53.063Z,58.00
2018-05-24T15:14:20.579Z,58.10
2018-05-24T15:16:48.092Z,57.60
2018-05-24T15:19:15.620Z,57.50
2018-05-24T15:21:43.901Z,56.50
2018-05-24T15:24:11.418Z,56.50
2018-05-24T15:26:38.989Z,57.00
2018-05-24T15:29:07.346Z,57.40
2018-05-24T15:31:34.865Z,57.40
2018-05-24T15:34:03.195Z,58.70
2018-05-24T15:36:30.714Z,58.60
2018-05-24T15:38:58.313Z,58.80
2018-05-24T15:41:26.634Z,59.30
2018-05-24T15:43:54.156Z,59.30
2018-05-24T15:46:21.733Z,60.20
2018-05-24T15:48:49.320Z,61.00
2018-05-24T15:51:16.850Z,63.10
2018-05-24T15:53:45.144Z,73.50
2018-05-24T15:56:12.693Z,73.50
2018-05-24T15:58:40.973Z,81.70
2018-05-24T16:01:09.245Z,84.80
2018-05-24T16:03:37.552Z,86.80
2018-05-24T16:06:05.074Z,86.60
2018-05-24T16:08:32.602Z,86.80
2018-05-24T16:11:00.159Z,87.90
2018-05-24T16:13:27.865Z,87.80
2018-05-24T16:15:55.390Z,89.30
2018-05-24T16:18:22.952Z,90.10
2018-05-24T16:20:50.468Z,90.00
2018-05-24T16:23:17.986Z,90.40
2018-05-24T16:25:45.542Z,90.50
2018-05-24T16:28:13.054Z,90.80
2018-05-24T16:30:40.565Z,90.90
2018-05-24T16:33:08.154Z,91.80
2018-05-24T16:35:35.681Z,92.50
2018-05-24T16:38:03.217Z,93.80
2018-05-24T16:40:30.908Z,93.70
2018-05-24T16:42:59.212Z,94.20
2018-05-24T16:45:26.770Z,94.10
2018-05-24T16:47:55.098Z,94.80
2018-05-24T16:50:22.625Z,94.80
2018-05-24T16:52:50.950Z,94.40
2018-05-24T16:55:19.994Z,94.50
2018-05-24T16:57:47.505Z,94.50
2018-05-24T17:00:16.010Z,94.90
2018-05-24T17:02:43.578Z,95.00
2018-05-24T17:05:11.098Z,93.70
2018-05-24T17:07:38.613Z,94.00
2018-05-24T17:10:06.997Z,93.90
2018-05-24T17:12:35.339Z,94.00
2018-05-24T17:15:02.963Z,94.00
2018-05-24T17:17:30.511Z,94.80
2018-05-24T17:19:58.805Z,94.20
2018-05-24T17:22:26.343Z,94.10
2018-05-24T17:24:53.929Z,94.60
2018-05-24T17:27:22.206Z,94.30
2018-05-24T17:29:50.484Z,94.50
2018-05-24T17:32:18.794Z,94.40
2018-05-24T17:34:46.313Z,94.40
2018-05-24T17:37:15.353Z,93.90
2018-05-24T17:39:42.917Z,93.90
2018-05-24T17:42:10.441Z,93.80
2018-05-24T17:44:37.961Z,94.20
2018-05-24T17:47:05.545Z,94.20
2018-05-24T17:49:33.085Z,94.10
2018-05-24T17:52:00.617Z,93.40
2018-05-24T17:54:28.425Z,93.10
2018-05-24T17:56:55.971Z,93.50
2018-05-24T17:59:23.489Z,93.40
2018-05-24T18:01:51.034Z,93.40
2018-05-24T18:04:18.585Z,93.30
2018-05-24T18:06:46.118Z,93.60
2018-05-24T18:09:14.429Z,93.40
2018-05-24T18:11:41.953Z,93.40
2018-05-24T18:14:10.239Z,93.10
2018-05-24T18:16:38.634Z,92.90
2018-05-24T18:19:06.927Z,93.10
2018-05-24T18:21:34.439Z,93.10
2018-05-24T18:24:02.058Z,93.00
2018-05-24T18:26:30.336Z,93.10
2018-05-24T18:28:57.864Z,93.10
2018-05-24T18:31:26.188Z,93.30
2018-05-24T18:33:53.746Z,93.20
2018-05-24T18:36:21.269Z,93.00
2018-05-24T18:38:49.588Z,93.40
2018-05-24T18:41:17.118Z,93.30
2018-05-24T18:43:44.633Z,93.60
2018-05-24T18:46:12.185Z,93.60
2018-05-24T18:48:39.714Z,93.00
2018-05-24T18:51:08.057Z,93.00
2018-05-24T18:53:35.611Z,93.00
2018-05-24T18:56:03.953Z,93.10
2018-05-24T18:58:32.277Z,93.50
2018-05-24T19:00:59.825Z,93.50
2018-05-24T19:03:27.358Z,93.10
2018-05-24T19:05:55.649Z,92.90
2018-05-24T19:08:25.296Z,93.00
2018-05-24T19:10:52.840Z,93.10
2018-05-24T19:13:20.364Z,93.10
2018-05-24T19:15:47.984Z,92.90
2018-05-24T19:18:16.930Z,93.20
2018-05-24T19:20:44.481Z,92.70
2018-05-24T19:23:12.111Z,92.40
2018-05-24T19:25:39.626Z,92.70
2018-05-24T19:28:07.134Z,92.20
2018-05-24T19:30:34.673Z,93.00
2018-05-24T19:33:02.958Z,92.70
2018-05-24T19:35:31.333Z,92.50
2018-05-24T19:37:58.889Z,92.40
2018-05-24T19:40:27.185Z,92.80
2018-05-24T19:42:55.461Z,92.40
2018-05-24T19:45:23.774Z,92.70
2018-05-24T19:47:51.322Z,92.70
2018-05-24T19:50:18.907Z,92.50
2018-05-24T19:52:46.457Z,92.60
2018-05-24T19:55:14.741Z,92.60
2018-05-24T19:57:42.262Z,92.60
2018-05-24T20:00:09.819Z,92.40
2018-05-24T20:02:37.363Z,92.50
2018-05-24T20:05:04.877Z,92.50
2018-05-24T20:07:33.209Z,92.40
2018-05-24T20:10:00.738Z,92.30
2018-05-24T20:12:28.285Z,92.60
2018-05-24T20:14:56.585Z,92.30
2018-05-24T20:17:24.865Z,92.50
2018-05-24T20:19:52.502Z,92.50
2018-05-24T20:22:20.830Z,92.40
2018-05-24T20:24:48.474Z,92.40
2018-05-24T20:27:16.749Z,93.00
2018-05-24T20:29:45.062Z,92.80
2018-05-24T20:32:13.444Z,93.10
2018-05-24T20:34:40.958Z,93.10
2018-05-24T20:37:09.263Z,93.00
2018-05-24T20:39:37.547Z,93.00
2018-05-24T20:42:05.843Z,92.80
2018-05-24T20:44:33.474Z,92.80
2018-05-24T20:47:01.010Z,93.00
2018-05-24T20:49:28.550Z,92.90
2018-05-24T20:51:56.202Z,93.00
2018-05-24T20:54:23.721Z,93.00
2018-05-24T20:56:52.010Z,92.90
2018-05-24T20:59:19.566Z,92.90
2018-05-24T21:01:47.238Z,93.10
2018-05-24T21:06:50.320Z,93.00
2018-05-24T21:09:17.976Z,92.90
2018-05-24T21:11:45.505Z,92.90
2018-05-24T21:14:13.833Z,93.00
2018-05-24T21:16:42.125Z,92.90
2018-05-24T21:19:09.649Z,92.90
2018-05-24T21:21:37.314Z,92.60
2018-05-24T21:24:04.830Z,92.50
2018-05-24T21:26:32.353Z,92.40
2018-05-24T21:28:59.891Z,92.40
2018-05-24T21:31:28.189Z,92.90
2018-05-24T21:33:55.719Z,92.80
2018-05-24T21:36:23.269Z,92.70
2018-05-24T21:38:50.775Z,92.70
2018-05-24T21:41:18.308Z,92.40
2018-05-24T21:43:46.634Z,92.60
2018-05-24T21:46:14.164Z,92.60
2018-05-24T21:48:42.445Z,93.10
2018-05-24T21:51:10.746Z,93.00
2018-05-24T21:53:39.018Z,93.00
2018-05-24T21:56:07.299Z,92.90
2018-05-24T21:58:34.856Z,92.90
2018-05-24T22:01:03.367Z,92.70
2018-05-24T22:03:30.898Z,92.60
2018-05-24T22:05:58.433Z,93.00
2018-05-24T22:08:25.954Z,93.60
2018-05-24T22:10:53.606Z,93.10
2018-05-24T22:13:21.923Z,93.20
2018-05-24T22:15:49.459Z,93.20
2018-05-24T22:18:17.008Z,93.60
2018-05-24T22:20:44.562Z,93.70
2018-05-24T22:23:13.766Z,93.20
2018-05-24T22:25:41.282Z,93.20
2018-05-24T22:28:08.813Z,92.70
2018-05-24T22:30:37.088Z,92.50
2018-05-24T22:33:05.398Z,92.90
2018-05-24T22:35:32.938Z,92.90
2018-05-24T22:38:01.254Z,93.20
2018-05-24T22:40:28.786Z,93.20
2018-05-24T22:42:57.102Z,93.30
2018-05-24T22:45:24.630Z,93.30
2018-05-24T22:47:52.939Z,93.50
2018-05-24T22:50:20.506Z,93.40
2018-05-24T22:52:48.017Z,93.40
2018-05-24T22:55:15.646Z,93.10
2018-05-24T22:57:43.310Z,93.40
2018-05-24T23:00:10.845Z,93.20
2018-05-24T23:02:39.122Z,93.10
2018-05-24T23:05:07.449Z,92.90
2018-05-24T23:07:34.979Z,93.10
2018-05-24T23:10:02.497Z,92.90
2018-05-24T23:12:30.050Z,92.60
2018-05-24T23:14:57.591Z,92.20
2018-05-24T23:17:25.115Z,92.10
2018-05-24T23:19:52.662Z,92.60
2018-05-24T23:22:31.955Z,92.90
2018-05-24T23:24:59.724Z,93.10
2018-05-24T23:27:27.245Z,92.50
2018-05-24T23:29:55.659Z,92.40
2018-05-24T23:32:23.474Z,92.30
2018-05-24T23:34:50.985Z,92.30
2018-05-24T23:37:18.505Z,92.80
2018-05-24T23:39:46.053Z,92.80
2018-05-24T23:42:13.598Z,92.90
2018-05-24T23:44:41.138Z,92.90
2018-05-24T23:47:09.446Z,92.50
2018-05-24T23:49:37.021Z,92.50
2018-05-24T23:52:04.545Z,92.70
2018-05-24T23:54:32.950Z,92.60
2018-05-24T23:57:01.234Z,93.20
2018-05-24T23:59:28.761Z,93.10
